Time;durP1;ratioP1;P1;durP2;ratioP2;P2;SDS_P1;SDS_P2;PMS_P1;PMS_P2;Temp;Humidity;BMP_temperature;BMP_pressure;BME280_temperature;BME280_humidity;BME280_pressure;Samples;Min_cycle;Max_cycle;Signal;HPM_P1;HPM_P2
2022/01/24 00:01:20;;;;;;;;;;;;;;;6.19;70.92;100944.19;6238903;22;19907;-78
2022/01/24 00:03:45;;;;;;;;;;;;;;;6.89;71.70;100954.66;6241848;22;19922;-79
2022/01/24 00:06:14;;;;;;;;;;;;;;;7.45;71.03;100956.25;6241740;23;19911;-78
2022/01/24 00:08:40;;;;;;;;;;;;;;;7.67;69.68;100951.41;6240703;23;19911;-78
2022/01/24 00:11:09;;;;;;;;;;;;;;;7.45;68.36;100946.00;6240455;23;20633;-78
2022/01/24 00:26:47;;;;;;;;;;;;;;;7.06;66.23;100906.22;6241093;23;19979;-79
2022/01/24 00:29:14;;;;;;;;;;;;;;;6.94;67.09;100898.38;6242644;23;19915;-78
2022/01/24 00:31:40;;;;;;;;;;;;;;;6.79;68.01;100896.47;6238899;22;19916;-78
2022/01/24 00:34:05;;;;;;;;;;;;;;;7.25;65.35;100902.22;6241787;22;20601;-78
2022/01/24 00:36:31;;;;;;;;;;;;;;;7.12;65.80;100906.31;6242547;23;19916;-79
2022/01/24 00:38:56;;;;;;;;;;;;;;;7.02;65.74;100899.34;6242524;23;19918;-79
2022/01/24 00:41:22;;;;;;;;;;;;;;;7.14;65.02;100908.91;6241107;23;19930;-78
2022/01/24 00:46:37;;;;;;;;;;;;;;;6.63;70.94;100910.75;6244076;23;19955;-80
2022/01/24 00:57:07;;;;;;;;;;;;;;;7.47;64.32;100940.91;6243074;23;19938;-79
2022/01/24 00:59:32;;;;;;;;;;;;;;;7.61;65.69;100930.81;6217678;23;19915;-78
2022/01/24 01:01:58;;;;;;;;;;;;;;;7.79;64.48;100927.56;6242573;23;19912;-78
2022/01/24 01:04:31;;;;;;;;;;;;;;;6.14;68.27;100910.00;6242840;23;19922;-77
2022/01/24 01:07:04;;;;;;;;;;;;;;;6.10;70.47;100928.66;6241891;23;19908;-77
2022/01/24 01:20:27;;;;;;;;;;;;;;;6.68;69.96;100975.69;6241063;23;19915;-79
2022/01/24 01:22:53;;;;;;;;;;;;;;;7.20;67.20;100990.09;6244132;22;19916;-79
2022/01/24 01:25:18;;;;;;;;;;;;;;;7.19;66.51;100983.25;6243036;23;20687;-79
2022/01/24 01:27:46;;;;;;;;;;;;;;;7.26;65.99;100990.19;6243328;23;19915;-79
2022/01/24 01:30:32;;;;;;;;;;;;;;;7.27;65.32;100994.47;6243170;23;19919;-78
2022/01/24 01:33:16;;;;;;;;;;;;;;;7.23;64.94;100979.88;6246374;22;20477;-79
2022/01/24 01:57:02;;;;;;;;;;;;;;;7.06;68.55;100993.31;6242386;23;20352;-79
2022/01/24 01:59:27;;;;;;;;;;;;;;;7.18;64.71;100986.66;6241106;23;19942;-79
2022/01/24 02:01:53;;;;;;;;;;;;;;;7.16;65.95;100989.22;6242579;23;20350;-79
2022/01/24 02:04:18;;;;;;;;;;;;;;;6.80;65.10;100974.16;6241524;23;19911;-79
2022/01/24 02:06:44;;;;;;;;;;;;;;;7.26;64.43;100978.22;6243098;23;19919;-78
2022/01/24 02:09:12;;;;;;;;;;;;;;;7.01;65.17;100968.50;6240944;22;19918;-79
2022/01/24 02:11:37;;;;;;;;;;;;;;;6.68;65.21;100956.91;6242178;22;19918;-79
2022/01/24 02:14:06;;;;;;;;;;;;;;;5.97;69.22;100942.06;6242899;23;19916;-79
2022/01/24 02:24:11;;;;;;;;;;;;;;;7.05;67.96;100976.25;6242925;23;19911;-80
2022/01/24 02:26:37;;;;;;;;;;;;;;;7.45;64.84;100981.03;6241986;22;19911;-80
2022/01/24 02:29:22;;;;;;;;;;;;;;;7.43;64.37;100968.19;6216078;23;20429;-80
2022/01/24 02:31:50;;;;;;;;;;;;;;;6.78;65.44;100956.22;6241922;23;19916;-80
2022/01/24 02:34:35;;;;;;;;;;;;;;;7.31;64.30;100947.53;6242635;22;19942;-80
2022/01/24 02:37:02;;;;;;;;;;;;;;;7.76;63.71;100930.97;6217142;23;20395;-79
2022/01/24 02:50:36;;;;;;;;;;;;;;;7.51;63.21;100882.00;6241358;23;19938;-78
2022/01/24 02:53:02;;;;;;;;;;;;;;;7.62;63.17;100876.09;6219282;23;19919;-78
2022/01/24 02:55:28;;;;;;;;;;;;;;;7.41;61.78;100877.63;6243397;22;19907;-78
2022/01/24 02:57:53;;;;;;;;;;;;;;;7.26;61.75;100862.06;6243903;23;20287;-80
2022/01/24 03:00:19;;;;;;;;;;;;;;;7.33;61.85;100853.59;6216882;23;19918;-79
2022/01/24 03:02:44;;;;;;;;;;;;;;;7.07;62.37;100855.84;6242667;23;19907;-78
2022/01/24 03:05:10;;;;;;;;;;;;;;;6.81;60.83;100858.09;6243047;22;20408;-80
2022/01/24 03:07:35;;;;;;;;;;;;;;;7.23;63.10;100855.19;6241918;23;19911;-80
2022/01/24 03:10:08;;;;;;;;;;;;;;;7.53;61.79;100857.22;6217051;23;19954;-79
2022/01/24 03:12:46;;;;;;;;;;;;;;;7.43;62.09;100859.66;6241886;23;19915;-79
2022/01/24 03:15:12;;;;;;;;;;;;;;;7.68;60.81;100853.09;6244109;22;19918;-80
2022/01/24 03:17:38;;;;;;;;;;;;;;;7.63;60.58;100852.19;6241963;23;19908;-78
2022/01/24 03:20:04;;;;;;;;;;;;;;;7.56;60.92;100846.16;6242049;23;19912;-79
2022/01/24 03:22:29;;;;;;;;;;;;;;;7.66;60.19;100852.22;6239459;22;19915;-79
2022/01/24 03:24:55;;;;;;;;;;;;;;;7.52;61.14;100852.94;6241637;23;19911;-79
2022/01/24 03:27:20;;;;;;;;;;;;;;;7.66;59.87;100847.09;6240217;23;19911;-79
2022/01/24 03:29:46;;;;;;;;;;;;;;;6.57;63.86;100833.88;6241701;23;19911;-79
2022/01/24 03:32:11;;;;;;;;;;;;;;;6.51;65.47;100848.28;6216703;23;20386;-79
2022/01/24 03:34:37;;;;;;;;;;;;;;;6.34;63.50;100856.59;6243298;23;19971;-79
2022/01/24 03:37:02;;;;;;;;;;;;;;;6.40;65.08;100871.16;6242779;23;20017;-79
2022/01/24 03:39:28;;;;;;;;;;;;;;;6.27;66.85;100877.78;6243431;23;19915;-80
2022/01/24 03:41:53;;;;;;;;;;;;;;;6.22;67.33;100882.81;6246246;23;19917;-79
2022/01/24 03:44:19;;;;;;;;;;;;;;;6.25;67.84;100893.13;6243988;23;20157;-80
2022/01/24 03:47:19;;;;;;;;;;;;;;;6.41;66.05;100912.13;6245547;22;19912;-79
2022/01/24 03:49:45;;;;;;;;;;;;;;;6.72;64.43;100934.78;6244946;23;19922;-80
2022/01/24 03:52:14;;;;;;;;;;;;;;;6.12;65.32;100927.00;6243744;23;19970;-80
2022/01/24 03:54:43;;;;;;;;;;;;;;;6.78;64.01;100945.13;6244533;23;19911;-78
2022/01/24 03:57:08;;;;;;;;;;;;;;;6.84;63.19;100945.19;6246621;23;19918;-79
2022/01/24 03:59:34;;;;;;;;;;;;;;;6.61;63.32;100945.69;6245023;23;19966;-79
2022/01/24 04:01:59;;;;;;;;;;;;;;;6.93;62.72;100965.81;6272536;22;19918;-80
2022/01/24 04:04:25;;;;;;;;;;;;;;;6.73;61.18;100955.28;6245724;23;19908;-80
2022/01/24 04:06:51;;;;;;;;;;;;;;;6.91;61.84;100959.78;6245716;23;19908;-80
2022/01/24 04:09:16;;;;;;;;;;;;;;;6.70;61.02;100958.66;6244686;23;19911;-79
2022/01/24 04:11:42;;;;;;;;;;;;;;;6.65;62.23;100950.03;6245046;23;19915;-79
2022/01/24 04:14:26;;;;;;;;;;;;;;;7.06;61.49;100967.72;6244297;23;19974;-80
2022/01/24 04:22:07;;;;;;;;;;;;;;;7.59;59.87;100937.59;6244245;23;19922;-80
2022/01/24 04:24:33;;;;;;;;;;;;;;;7.36;60.19;100924.53;6244652;23;19911;-79
2022/01/24 04:26:58;;;;;;;;;;;;;;;6.85;62.25;100906.81;6217995;22;19907;-79
2022/01/24 04:29:24;;;;;;;;;;;;;;;6.38;64.04;100895.84;6220172;23;19915;-80
2022/01/24 04:31:49;;;;;;;;;;;;;;;6.88;63.84;100911.09;6241562;23;19915;-80
2022/01/24 04:34:15;;;;;;;;;;;;;;;6.20;65.43;100898.97;6242307;22;20611;-80
2022/01/24 04:36:40;;;;;;;;;;;;;;;6.31;65.39;100904.28;6219604;23;19942;-79
2022/01/24 04:39:06;;;;;;;;;;;;;;;6.00;65.94;100920.00;6218728;23;19919;-80
2022/01/24 04:41:36;;;;;;;;;;;;;;;6.12;66.13;100921.88;6244461;23;19912;-79
2022/01/24 04:52:19;;;;;;;;;;;;;;;6.02;66.01;100963.47;6246881;23;19946;-80
2022/01/24 04:54:44;;;;;;;;;;;;;;;6.81;63.72;100981.00;6247875;23;19911;-80
2022/01/24 04:57:11;;;;;;;;;;;;;;;6.69;62.93;100979.97;6246269;23;19919;-78
2022/01/24 04:59:37;;;;;;;;;;;;;;;7.30;60.12;100997.09;6246123;23;19927;-79
2022/01/24 05:02:03;;;;;;;;;;;;;;;7.03;59.83;100985.59;6223803;23;20251;-80
2022/01/24 05:04:28;;;;;;;;;;;;;;;7.35;59.38;100980.06;6247857;22;19918;-79
2022/01/24 05:06:54;;;;;;;;;;;;;;;6.82;59.02;100967.34;6243854;23;19912;-79
2022/01/24 05:09:20;;;;;;;;;;;;;;;6.40;61.68;100950.50;6217376;23;19912;-79
2022/01/24 05:11:54;;;;;;;;;;;;;;;6.31;62.14;100948.63;6241546;23;20663;-79
2022/01/24 05:25:16;;;;;;;;;;;;;;;6.83;60.29;100912.75;6243900;23;20041;-79
2022/01/24 05:27:42;;;;;;;;;;;;;;;6.78;61.41;100899.88;6245020;22;19915;-78
2022/01/24 05:30:07;;;;;;;;;;;;;;;7.05;61.06;100895.97;6242944;23;19923;-79
2022/01/24 05:32:33;;;;;;;;;;;;;;;7.25;58.95;100906.44;6216881;23;20202;-79
2022/01/24 05:34:58;;;;;;;;;;;;;;;7.29;59.45;100901.38;6240135;22;19927;-80
2022/01/24 05:37:24;;;;;;;;;;;;;;;6.54;59.67;100879.88;6243132;23;19915;-80
2022/01/24 05:39:49;;;;;;;;;;;;;;;6.23;63.46;100870.91;6242011;23;19911;-80
2022/01/24 05:42:18;;;;;;;;;;;;;;;6.55;63.92;100884.19;6242153;23;20267;-80
2022/01/24 05:44:44;;;;;;;;;;;;;;;6.63;62.11;100892.81;6216865;22;19907;-80
2022/01/24 05:50:29;;;;;;;;;;;;;;;6.32;62.93;100883.84;6178727;23;19923;-79
2022/01/24 05:52:55;;;;;;;;;;;;;;;6.57;61.30;100897.88;6155154;23;19912;-79
2022/01/24 05:55:20;;;;;;;;;;;;;;;6.02;64.12;100899.53;6154508;23;19935;-79
2022/01/24 05:57:45;;;;;;;;;;;;;;;6.70;62.06;100917.72;6154862;23;19912;-80
2022/01/24 06:00:11;;;;;;;;;;;;;;;6.81;60.20;100922.97;6154881;23;19923;-80
2022/01/24 06:02:37;;;;;;;;;;;;;;;6.31;62.12;100910.25;6180466;23;19916;-80
2022/01/24 06:05:02;;;;;;;;;;;;;;;6.64;61.67;100917.59;6154149;23;19922;-78
2022/01/24 06:07:28;;;;;;;;;;;;;;;6.72;59.59;100939.91;6154809;23;19919;-79
2022/01/24 06:09:53;;;;;;;;;;;;;;;6.85;60.07;100931.56;6178593;23;19908;-79
2022/01/24 06:12:19;;;;;;;;;;;;;;;6.90;58.57;100929.91;6130037;23;20407;-80
2022/01/24 06:14:44;;;;;;;;;;;;;;;6.98;58.46;100918.09;6155545;23;19913;-80
2022/01/24 06:17:10;;;;;;;;;;;;;;;6.77;60.57;100907.53;6154591;23;19908;-79
2022/01/24 06:19:36;;;;;;;;;;;;;;;7.34;58.31;100906.56;6129257;23;19933;-80
2022/01/24 06:22:01;;;;;;;;;;;;;;;6.23;60.29;100889.69;6148145;23;19908;-80
2022/01/24 06:24:27;;;;;;;;;;;;;;;6.97;58.34;100889.88;6197017;23;19918;-81
2022/01/24 06:26:52;;;;;;;;;;;;;;;7.34;58.37;100886.06;6233337;23;19994;-77
2022/01/24 06:29:18;;;;;;;;;;;;;;;7.38;56.73;100872.44;6232934;23;19912;-79
2022/01/24 06:31:44;;;;;;;;;;;;;;;7.14;58.11;100867.91;6232586;23;19957;-78
2022/01/24 06:34:09;;;;;;;;;;;;;;;6.05;58.46;100845.91;6233618;22;20366;-79
2022/01/24 06:36:34;;;;;;;;;;;;;;;6.93;59.85;100845.44;6229521;22;19912;-79
2022/01/24 06:39:01;;;;;;;;;;;;;;;6.56;60.17;100847.50;6231056;22;19923;-79
2022/01/24 06:41:32;;;;;;;;;;;;;;;7.09;59.58;100860.16;6233682;22;20642;-78
2022/01/24 06:43:57;;;;;;;;;;;;;;;6.97;57.74;100856.59;6233401;23;20433;-80
2022/01/24 06:46:22;;;;;;;;;;;;;;;7.23;57.30;100856.88;6233181;23;19923;-79
2022/01/24 06:48:48;;;;;;;;;;;;;;;6.89;57.48;100847.09;6232045;23;19974;-80
2022/01/24 06:51:13;;;;;;;;;;;;;;;6.14;58.82;100845.19;6234085;22;20332;-79
2022/01/24 06:53:39;;;;;;;;;;;;;;;6.38;62.16;100854.91;6233451;23;19994;-78
2022/01/24 06:56:08;;;;;;;;;;;;;;;6.61;61.06;100863.78;6233425;23;19951;-80
2022/01/24 06:58:34;;;;;;;;;;;;;;;7.06;59.70;100872.06;6233666;23;19943;-80
2022/01/24 07:00:59;;;;;;;;;;;;;;;6.75;59.75;100870.78;6235578;23;19923;-79
2022/01/24 07:03:25;;;;;;;;;;;;;;;6.30;59.53;100874.44;6236215;23;19960;-80
2022/01/24 07:05:50;;;;;;;;;;;;;;;5.99;63.06;100876.47;6231767;23;19983;-80
2022/01/24 07:08:15;;;;;;;;;;;;;;;5.91;64.08;100885.66;6232364;23;19918;-79
2022/01/24 07:10:41;;;;;;;;;;;;;;;6.13;64.63;100902.28;6232866;23;20302;-79
2022/01/24 07:13:06;;;;;;;;;;;;;;;6.44;63.94;100908.75;6232950;23;20675;-79
2022/01/24 07:15:41;;;;;;;;;;;;;;;6.63;61.13;100930.38;6230980;23;19966;-78
2022/01/24 07:20:35;;;;;;;;;;;;;;;6.67;61.20;100938.13;6234430;23;19923;-80
2022/01/24 07:23:01;;;;;;;;;;;;;;;6.87;59.32;100940.13;6236844;23;19912;-79
2022/01/24 07:25:27;;;;;;;;;;;;;;;6.34;60.42;100940.16;6210130;23;19986;-82
2022/01/24 07:27:52;;;;;;;;;;;;;;;6.24;59.67;100942.56;6209614;23;19939;-80
2022/01/24 07:30:18;;;;;;;;;;;;;;;6.43;61.40;100953.09;6237217;22;20314;-79
2022/01/24 07:32:43;;;;;;;;;;;;;;;5.93;62.21;100950.50;6235279;22;19915;-81
2022/01/24 07:35:09;;;;;;;;;;;;;;;5.90;62.42;100965.78;6233680;22;19919;-81
2022/01/24 07:37:34;;;;;;;;;;;;;;;6.09;59.92;100965.34;6230590;23;19943;-77
2022/01/24 07:40:05;;;;;;;;;;;;;;;5.87;62.01;100981.94;6207926;23;19922;-81
2022/01/24 07:42:54;;;;;;;;;;;;;;;6.46;61.84;100994.09;6204787;23;19974;-82
2022/01/24 07:45:19;;;;;;;;;;;;;;;6.65;58.88;100993.56;6235492;23;19916;-79
2022/01/24 07:47:47;;;;;;;;;;;;;;;6.35;60.11;100995.63;6236294;22;19915;-78
2022/01/24 07:50:13;;;;;;;;;;;;;;;6.21;59.58;100992.81;6234945;23;19987;-82
2022/01/24 07:52:38;;;;;;;;;;;;;;;6.57;58.50;100994.25;6233813;23;19918;-78
2022/01/24 07:55:04;;;;;;;;;;;;;;;5.92;60.52;100982.88;6234770;23;20487;-78
2022/01/24 07:57:29;;;;;;;;;;;;;;;6.04;61.18;100985.72;6234634;23;19991;-77
2022/01/24 07:59:55;;;;;;;;;;;;;;;5.51;62.76;100982.06;6234936;23;19912;-79
2022/01/24 08:02:20;;;;;;;;;;;;;;;5.60;62.60;101012.91;6234737;23;19918;-78
2022/01/24 08:04:46;;;;;;;;;;;;;;;5.95;59.84;101018.75;6207818;23;19918;-78
2022/01/24 08:07:12;;;;;;;;;;;;;;;6.63;59.49;101027.66;6234806;23;19935;-79
2022/01/24 08:09:37;;;;;;;;;;;;;;;6.42;59.33;101015.38;6235053;23;19938;-78
2022/01/24 08:12:04;;;;;;;;;;;;;;;7.04;57.23;101014.63;6236873;23;19923;-80
2022/01/24 08:14:29;;;;;;;;;;;;;;;6.59;57.93;101008.84;6235846;23;20312;-80
2022/01/24 08:16:54;;;;;;;;;;;;;;;6.84;57.33;100996.41;6235200;23;19915;-79
2022/01/24 08:19:19;;;;;;;;;;;;;;;6.59;56.77;100988.38;6210528;23;19919;-79
2022/01/24 08:21:45;;;;;;;;;;;;;;;6.42;58.15;100966.72;6236640;23;20355;-78
2022/01/24 08:24:11;;;;;;;;;;;;;;;6.05;57.93;100951.63;6230863;23;19912;-80
2022/01/24 08:26:37;;;;;;;;;;;;;;;5.37;61.17;100954.53;6229796;23;19912;-79
2022/01/24 08:29:02;;;;;;;;;;;;;;;5.98;64.08;100962.56;6230655;23;19916;-80
2022/01/24 08:31:28;;;;;;;;;;;;;;;5.92;58.45;100971.78;6231081;23;19946;-79
2022/01/24 08:33:53;;;;;;;;;;;;;;;5.20;64.02;100961.84;6204031;23;19919;-80
2022/01/24 08:36:18;;;;;;;;;;;;;;;5.99;63.29;100976.22;6205782;23;19939;-78
2022/01/24 08:38:47;;;;;;;;;;;;;;;6.37;58.61;100983.72;6203850;23;19915;-80
2022/01/24 08:41:20;;;;;;;;;;;;;;;7.19;57.74;100999.50;6205183;23;20252;-79
2022/01/24 08:46:13;;;;;;;;;;;;;;;6.60;56.64;100967.03;6231432;23;20011;-78
2022/01/24 08:48:39;;;;;;;;;;;;;;;6.19;56.38;100959.53;6204971;23;19943;-78
2022/01/24 08:51:04;;;;;;;;;;;;;;;5.54;59.30;100946.34;6232281;23;19998;-78
2022/01/24 08:53:31;;;;;;;;;;;;;;;5.85;60.01;100958.88;6204799;23;19916;-79
2022/01/24 08:55:58;;;;;;;;;;;;;;;6.55;60.07;100963.53;6206396;23;19908;-79
2022/01/24 08:58:24;;;;;;;;;;;;;;;6.78;57.16;100965.59;6205989;23;19908;-79
2022/01/24 09:00:50;;;;;;;;;;;;;;;6.82;55.88;100963.09;6207099;23;19935;-80
2022/01/24 09:03:15;;;;;;;;;;;;;;;6.97;55.83;100952.22;6205354;23;19908;-80
2022/01/24 09:05:41;;;;;;;;;;;;;;;6.89;56.29;100938.44;6210077;23;19918;-80
2022/01/24 09:08:10;;;;;;;;;;;;;;;6.40;57.33;100930.03;6205055;23;19911;-78
2022/01/24 09:10:38;;;;;;;;;;;;;;;6.64;57.15;100927.00;6207519;23;19915;-79
2022/01/24 09:13:03;;;;;;;;;;;;;;;6.66;57.88;100923.63;6205802;23;19983;-80
2022/01/24 09:15:29;;;;;;;;;;;;;;;7.20;57.20;100924.34;6207028;23;19958;-79
2022/01/24 09:17:54;;;;;;;;;;;;;;;6.87;54.64;100917.06;6204443;23;19915;-78
2022/01/24 09:20:20;;;;;;;;;;;;;;;7.15;54.36;100912.31;6203878;23;20228;-79
2022/01/24 09:22:46;;;;;;;;;;;;;;;7.03;55.70;100900.22;6231513;23;19918;-79
2022/01/24 09:25:12;;;;;;;;;;;;;;;6.93;55.55;100898.34;6182339;23;19911;-79
2022/01/24 09:27:38;;;;;;;;;;;;;;;6.96;54.98;100896.72;6206829;23;19918;-80
2022/01/24 09:30:04;;;;;;;;;;;;;;;6.87;55.42;100894.03;6207609;23;20487;-79
2022/01/24 09:32:30;;;;;;;;;;;;;;;7.27;55.01;100886.81;6206518;23;19922;-79
2022/01/24 09:34:55;;;;;;;;;;;;;;;6.99;54.71;100883.06;6216111;23;20482;-80
2022/01/24 09:37:21;;;;;;;;;;;;;;;6.62;56.10;100878.31;6206777;23;19959;-80
2022/01/24 09:39:46;;;;;;;;;;;;;;;6.26;58.33;100879.47;6232382;23;19973;-80
2022/01/24 09:42:12;;;;;;;;;;;;;;;6.53;57.78;100888.44;6233864;23;19916;-79
2022/01/24 09:44:37;;;;;;;;;;;;;;;7.11;55.72;100896.88;6205962;23;19931;-80
2022/01/24 09:47:03;;;;;;;;;;;;;;;6.32;56.78;100893.19;6231930;23;19911;-78
2022/01/24 09:49:28;;;;;;;;;;;;;;;6.65;54.59;100908.22;6235009;23;19911;-79
2022/01/24 09:51:53;;;;;;;;;;;;;;;5.93;59.86;100909.56;6232187;23;19994;-78
2022/01/24 09:54:19;;;;;;;;;;;;;;;5.92;60.17;100908.72;6233025;23;19921;-79
2022/01/24 09:56:44;;;;;;;;;;;;;;;5.37;60.75;100913.66;6233811;23;19912;-80
2022/01/24 09:59:10;;;;;;;;;;;;;;;6.01;62.52;100924.25;6208192;23;19915;-80
2022/01/24 10:01:35;;;;;;;;;;;;;;;6.99;57.54;100942.84;6233161;23;19912;-79
2022/01/24 10:04:20;;;;;;;;;;;;;;;6.27;59.76;100937.50;6234616;23;20006;-79
2022/01/24 10:07:04;;;;;;;;;;;;;;;6.12;62.04;100955.16;6209704;23;19914;-81
2022/01/24 10:09:40;;;;;;;;;;;;;;;6.08;59.26;100966.16;6259350;22;19912;-78
2022/01/24 10:12:12;;;;;;;;;;;;;;;5.21;62.26;100968.69;6233405;23;19950;-79
2022/01/24 10:17:23;;;;;;;;;;;;;;;6.99;57.36;101006.88;6232741;23;19938;-79
2022/01/24 10:19:50;;;;;;;;;;;;;;;6.45;57.78;100995.81;6206936;23;19911;-79
2022/01/24 10:22:16;;;;;;;;;;;;;;;6.44;58.17;101006.00;6206401;23;19978;-80
2022/01/24 10:24:43;;;;;;;;;;;;;;;6.04;56.48;101006.19;6232491;23;19966;-78
2022/01/24 10:27:11;;;;;;;;;;;;;;;6.78;57.31;101004.88;6232374;23;20206;-79
2022/01/24 10:29:41;;;;;;;;;;;;;;;6.81;55.60;101004.91;6256655;22;19912;-79
2022/01/24 10:32:06;;;;;;;;;;;;;;;6.55;56.57;101001.94;6233302;22;19927;-77
2022/01/24 10:34:37;;;;;;;;;;;;;;;6.48;56.34;100997.56;6231682;23;19920;-78
2022/01/24 10:37:03;;;;;;;;;;;;;;;6.87;55.69;100996.47;6233074;23;19919;-78
2022/01/24 10:39:43;;;;;;;;;;;;;;;7.12;55.30;100988.28;6230279;23;19912;-79
2022/01/24 10:42:24;;;;;;;;;;;;;;;7.47;55.27;100975.06;6229097;23;20383;-79
2022/01/24 10:44:52;;;;;;;;;;;;;;;6.33;53.89;100946.13;6233004;22;20328;-79
2022/01/24 10:47:18;;;;;;;;;;;;;;;5.41;59.83;100935.03;6230370;23;19919;-79
2022/01/24 10:49:44;;;;;;;;;;;;;;;6.78;58.26;100955.34;6259230;22;20546;-76
2022/01/24 10:52:20;;;;;;;;;;;;;;;6.68;59.37;100954.34;6235837;23;19954;-79
2022/01/24 10:54:50;;;;;;;;;;;;;;;6.92;55.46;100956.41;6240500;23;19916;-79
2022/01/24 10:57:20;;;;;;;;;;;;;;;7.30;55.37;100948.41;6232813;23;19937;-80
2022/01/24 10:59:45;;;;;;;;;;;;;;;6.74;55.06;100938.22;6234472;23;19912;-79
2022/01/24 11:02:11;;;;;;;;;;;;;;;6.97;53.92;100941.97;6228538;22;20221;-78
2022/01/24 11:04:38;;;;;;;;;;;;;;;6.53;56.69;100924.25;6203747;23;19919;-78
2022/01/24 11:07:03;;;;;;;;;;;;;;;6.32;55.08;100919.66;6230010;23;19919;-80
2022/01/24 11:09:33;;;;;;;;;;;;;;;5.90;60.50;100912.09;6199501;23;20422;-80
2022/01/24 11:12:08;;;;;;;;;;;;;;;6.22;61.01;100920.34;6227975;23;19919;-79
2022/01/24 11:14:36;;;;;;;;;;;;;;;5.72;60.08;100923.69;6228743;23;19915;-79
2022/01/24 11:17:01;;;;;;;;;;;;;;;5.90;60.18;100935.94;6228015;23;19981;-78
2022/01/24 11:21:54;;;;;;;;;;;;;;;6.19;60.66;100956.97;6229369;23;19926;-78
2022/01/24 11:24:25;;;;;;;;;;;;;;;6.80;56.77;100969.06;6220863;22;19938;-78
2022/01/24 11:26:51;;;;;;;;;;;;;;;6.41;56.29;100965.88;6228243;23;19919;-77
2022/01/24 11:29:17;;;;;;;;;;;;;;;6.95;55.91;100971.81;6202729;23;19911;-79
2022/01/24 11:31:51;;;;;;;;;;;;;;;6.31;54.25;100952.91;6229128;23;19942;-80
2022/01/24 11:34:19;;;;;;;;;;;;;;;6.52;56.48;100949.81;6227663;23;20283;-77
2022/01/24 11:36:45;;;;;;;;;;;;;;;6.95;54.81;100959.00;6228632;23;20336;-78
2022/01/24 11:39:11;;;;;;;;;;;;;;;6.67;54.94;100950.06;6203134;23;19912;-78
2022/01/24 11:41:39;;;;;;;;;;;;;;;6.93;53.99;100945.31;6231579;22;20661;-76
2022/01/24 11:44:23;;;;;;;;;;;;;;;6.51;55.11;100920.81;6231372;23;20690;-80
2022/01/24 11:46:55;;;;;;;;;;;;;;;7.20;54.32;100916.63;6235399;23;19951;-78
2022/01/24 11:49:24;;;;;;;;;;;;;;;7.24;51.72;100915.00;6232104;23;20366;-78
2022/01/24 11:51:51;;;;;;;;;;;;;;;6.20;56.46;100876.84;6254205;22;19933;-77
2022/01/24 11:57:29;;;;;;;;;;;;;;;6.57;56.48;100885.06;6229281;23;19914;-78
2022/01/24 12:00:00;;;;;;;;;;;;;;;5.64;58.41;100882.66;6251538;22;19912;-79
2022/01/24 12:02:28;;;;;;;;;;;;;;;5.93;57.54;100886.56;6254736;22;19908;-78
2022/01/24 12:04:54;;;;;;;;;;;;;;;6.02;56.05;100894.41;6230642;23;19969;-76
2022/01/24 12:07:20;;;;;;;;;;;;;;;6.43;55.02;100896.78;6233255;23;20009;-78
2022/01/24 12:09:45;;;;;;;;;;;;;;;5.15;59.57;100896.16;6234628;22;20367;-78
2022/01/24 12:12:34;;;;;;;;;;;;;;;4.64;63.13;100901.88;6233777;23;19912;-79
2022/01/24 12:15:00;;;;;;;;;;;;;;;5.24;65.15;100929.56;6234745;23;19911;-79
2022/01/24 12:17:45;;;;;;;;;;;;;;;5.90;61.15;100955.56;6232258;23;19918;-77
2022/01/24 12:20:29;;;;;;;;;;;;;;;6.04;59.32;100977.16;6232335;23;20200;-78
2022/01/24 12:22:54;;;;;;;;;;;;;;;5.77;56.57;100986.00;6232789;23;19926;-78
2022/01/24 12:25:19;;;;;;;;;;;;;;;6.32;58.63;101009.22;6231736;23;19916;-77
2022/01/24 12:28:03;;;;;;;;;;;;;;;6.76;55.56;101029.59;6231953;23;19931;-79
2022/01/24 12:30:48;;;;;;;;;;;;;;;6.28;55.33;101028.78;6231800;22;19919;-79
2022/01/24 12:33:27;;;;;;;;;;;;;;;5.92;56.75;101026.34;6232822;22;19916;-77
2022/01/24 12:35:53;;;;;;;;;;;;;;;6.34;55.09;101028.03;6232429;23;19947;-80
2022/01/24 12:38:18;;;;;;;;;;;;;;;7.27;53.68;101032.91;6232083;23;19912;-79
2022/01/24 12:40:45;;;;;;;;;;;;;;;7.15;51.05;101017.38;6233096;23;19935;-80
2022/01/24 12:43:18;;;;;;;;;;;;;;;6.53;50.94;100995.94;6206399;23;19919;-78
2022/01/24 12:48:28;;;;;;;;;;;;;;;7.02;50.56;100944.59;6232328;23;19918;-77
2022/01/24 12:50:54;;;;;;;;;;;;;;;6.61;51.51;100909.84;6235438;23;19915;-78
2022/01/24 12:53:21;;;;;;;;;;;;;;;7.22;48.93;100893.59;6233452;23;19908;-78
2022/01/24 12:55:55;;;;;;;;;;;;;;;7.57;51.20;100864.94;6232035;23;19908;-78
2022/01/24 12:58:33;;;;;;;;;;;;;;;7.77;51.05;100849.75;6231146;23;19919;-77
2022/01/24 13:00:58;;;;;;;;;;;;;;;7.62;52.40;100835.06;6234082;23;19922;-78
2022/01/24 13:03:24;;;;;;;;;;;;;;;5.69;56.29;100829.06;6234391;23;19911;-78
2022/01/24 13:05:49;;;;;;;;;;;;;;;4.96;61.79;100824.31;6235534;22;20364;-80
2022/01/24 13:08:15;;;;;;;;;;;;;;;5.48;62.20;100829.56;6259564;22;19911;-81
2022/01/24 13:10:44;;;;;;;;;;;;;;;5.85;62.75;100848.94;6234186;23;19912;-80
2022/01/24 13:13:13;;;;;;;;;;;;;;;6.76;58.60;100868.25;6233967;23;20451;-81
2022/01/24 13:23:33;;;;;;;;;;;;;;;6.85;54.49;100880.34;6233409;23;19990;-79
2022/01/24 13:25:58;;;;;;;;;;;;;;;7.12;53.43;100879.84;6208679;23;20361;-77
2022/01/24 13:28:23;;;;;;;;;;;;;;;7.11;49.60;100878.09;6232691;23;19991;-80
2022/01/24 13:30:51;;;;;;;;;;;;;;;6.19;52.10;100854.63;6234030;23;19977;-78
2022/01/24 13:33:19;;;;;;;;;;;;;;;5.60;58.88;100844.25;6233556;23;20406;-77
2022/01/24 13:35:46;;;;;;;;;;;;;;;6.63;55.54;100864.66;6234540;22;19946;-78
2022/01/24 13:38:12;;;;;;;;;;;;;;;6.78;57.04;100873.41;6234261;23;19915;-79
2022/01/24 13:40:40;;;;;;;;;;;;;;;7.27;52.86;100872.31;6233970;23;19908;-79
2022/01/24 13:43:06;;;;;;;;;;;;;;;7.28;51.90;100868.06;6233391;23;20291;-77
2022/01/24 13:45:35;;;;;;;;;;;;;;;6.66;52.86;100853.59;6234299;23;19912;-79
2022/01/24 13:48:02;;;;;;;;;;;;;;;5.87;52.99;100838.75;6234824;22;19942;-78
2022/01/24 13:50:27;;;;;;;;;;;;;;;5.82;54.91;100838.66;6236606;23;19995;-78
2022/01/24 13:52:53;;;;;;;;;;;;;;;6.05;57.92;100845.91;6236764;23;20422;-77
2022/01/24 13:55:19;;;;;;;;;;;;;;;6.76;54.37;100863.16;6236016;23;19903;-77
2022/01/24 13:57:49;;;;;;;;;;;;;;;6.48;52.64;100859.34;6235504;23;19912;-78
2022/01/24 14:00:16;;;;;;;;;;;;;;;7.38;50.95;100862.19;6237309;23;19912;-78
2022/01/24 14:02:41;;;;;;;;;;;;;;;7.45;50.06;100846.03;6234897;23;19917;-80
2022/01/24 14:05:07;;;;;;;;;;;;;;;6.99;51.42;100834.41;6234818;23;19978;-79
2022/01/24 14:07:34;;;;;;;;;;;;;;;6.68;51.95;100826.31;6272959;22;19910;-80
2022/01/24 14:10:02;;;;;;;;;;;;;;;6.35;51.15;100812.22;6229419;23;19958;-80
2022/01/24 14:12:40;;;;;;;;;;;;;;;6.86;52.19;100807.78;6255739;23;19918;-81
2022/01/24 14:15:15;;;;;;;;;;;;;;;6.90;53.20;100804.41;6255454;23;19982;-81
2022/01/24 14:20:16;;;;;;;;;;;;;;;6.17;52.42;100805.16;6259663;23;19915;-81
2022/01/24 14:22:41;;;;;;;;;;;;;;;6.91;52.66;100808.69;6257614;23;19908;-80
2022/01/24 14:25:11;;;;;;;;;;;;;;;6.57;53.64;100804.84;6258103;23;19995;-79
2022/01/24 14:27:42;;;;;;;;;;;;;;;6.61;52.20;100809.16;6257521;22;19914;-80
2022/01/24 14:30:26;;;;;;;;;;;;;;;6.69;51.36;100805.88;6280994;22;20244;-80
2022/01/24 14:32:59;;;;;;;;;;;;;;;6.28;50.50;100800.19;6258738;22;19922;-81
2022/01/24 14:35:25;;;;;;;;;;;;;;;6.52;49.80;100801.38;6255757;23;19948;-79
2022/01/24 14:37:51;;;;;;;;;;;;;;;6.24;52.89;100799.28;6254085;22;20336;-80
2022/01/24 14:40:36;;;;;;;;;;;;;;;6.34;54.44;100784.94;6281567;22;20041;-81
2022/01/24 14:45:46;;;;;;;;;;;;;;;6.51;54.06;100803.06;6255059;22;19939;-81
2022/01/24 14:48:12;;;;;;;;;;;;;;;6.60;51.85;100805.75;6257485;22;20411;-81
2022/01/24 14:50:37;;;;;;;;;;;;;;;6.50;53.47;100806.47;6256198;23;19947;-79
2022/01/24 14:53:06;;;;;;;;;;;;;;;6.62;51.37;100811.75;6257526;23;19908;-79
2022/01/24 14:55:32;;;;;;;;;;;;;;;6.64;51.10;100804.97;6258551;22;19928;-78
2022/01/24 14:57:57;;;;;;;;;;;;;;;6.40;51.07;100802.91;6258114;23;20018;-81
2022/01/24 15:00:23;;;;;;;;;;;;;;;6.63;51.36;100802.38;6258716;23;19919;-79
2022/01/24 15:02:49;;;;;;;;;;;;;;;7.20;49.54;100790.22;6257878;23;19931;-80